createdAt,value
2022-08-10T00:01:30.540Z,17.40
2022-08-10T00:04:21.287Z,17.30
2022-08-10T00:07:00.296Z,17.20
2022-08-10T00:09:50.918Z,17.10
2022-08-10T00:12:53.920Z,17.00
2022-08-10T00:15:53.198Z,16.80
2022-08-10T00:18:31.427Z,16.70
2022-08-10T00:21:15.200Z,16.50
2022-08-10T00:23:52.497Z,16.50
2022-08-10T00:27:46.930Z,16.30
2022-08-10T00:29:27.718Z,16.30
2022-08-10T00:32:03.768Z,16.30
2022-08-10T00:34:39.519Z,16.40
2022-08-10T00:37:19.133Z,16.40
2022-08-10T00:39:54.755Z,16.40
2022-08-10T00:42:32.492Z,16.40
2022-08-10T00:45:08.317Z,16.40
2022-08-10T00:47:46.335Z,16.40
2022-08-10T00:50:22.914Z,16.40
2022-08-10T00:53:02.528Z,16.40
2022-08-10T00:57:12.439Z,16.40
2022-08-10T00:58:37.215Z,16.40
2022-08-10T01:02:08.407Z,16.50
2022-08-10T01:04:57.904Z,16.40
2022-08-10T01:07:27.867Z,16.30
2022-08-10T01:10:19.796Z,16.40
2022-08-10T01:13:02.341Z,16.50
2022-08-10T01:15:44.862Z,16.60
2022-08-10T01:18:28.992Z,16.70
2022-08-10T01:21:30.538Z,16.90
2022-08-10T01:24:29.075Z,16.90
2022-08-10T01:27:29.754Z,17.30
2022-08-10T01:30:13.690Z,17.20
2022-08-10T01:32:56.495Z,17.00
2022-08-10T01:35:40.219Z,17.00
2022-08-10T01:38:22.993Z,16.80
2022-08-10T01:41:02.663Z,16.70
2022-08-10T01:43:43.552Z,16.60
2022-08-10T01:46:24.525Z,16.70
2022-08-10T01:49:02.165Z,16.70
2022-08-10T01:51:41.734Z,16.70
2022-08-10T01:54:20.170Z,16.80
2022-08-10T01:56:59.055Z,16.70
2022-08-10T01:59:39.845Z,16.70
2022-08-10T02:02:20.840Z,16.70
2022-08-10T02:04:59.465Z,16.60
2022-08-10T02:07:39.002Z,16.60
2022-08-10T02:16:01.426Z,16.80
2022-08-10T02:18:41.990Z,16.30
2022-08-10T02:23:59.616Z,16.20
2022-08-10T02:26:39.090Z,16.20
2022-08-10T02:29:20.173Z,16.30
2022-08-10T02:31:58.342Z,16.40
2022-08-10T02:34:39.166Z,16.60
2022-08-10T02:37:19.526Z,16.70
2022-08-10T02:39:55.871Z,16.90
2022-08-10T02:45:20.720Z,16.90
2022-08-10T02:45:48.533Z,17.00
2022-08-10T02:48:29.635Z,17.00
2022-08-10T02:51:15.478Z,17.00
2022-08-10T02:53:57.261Z,16.80
2022-08-10T03:07:43.007Z,16.20
2022-08-10T03:10:24.107Z,16.10
2022-08-10T03:13:04.912Z,16.00
2022-08-10T03:15:44.611Z,15.90
2022-08-10T03:18:21.474Z,15.90
2022-08-10T03:20:59.031Z,15.80
2022-08-10T03:23:38.051Z,15.80
2022-08-10T03:26:20.318Z,15.80
2022-08-10T03:28:58.506Z,15.90
2022-08-10T03:31:36.459Z,15.90
2022-08-10T03:34:22.071Z,15.90
2022-08-10T03:37:09.468Z,15.90
2022-08-10T03:39:50.057Z,15.90
2022-08-10T03:42:27.061Z,16.00
2022-08-10T03:45:08.238Z,16.00
2022-08-10T03:47:46.472Z,16.10
2022-08-10T03:50:45.508Z,16.20
2022-08-10T03:53:24.926Z,16.20
2022-08-10T03:56:28.712Z,16.30
2022-08-10T03:59:08.927Z,16.70
2022-08-10T04:02:45.242Z,16.90
2022-08-10T04:04:42.656Z,16.90
2022-08-10T04:07:20.167Z,16.80
2022-08-10T04:09:58.848Z,16.70
2022-08-10T04:12:37.373Z,16.60
2022-08-10T04:15:16.005Z,16.60
2022-08-10T04:18:04.339Z,16.70
2022-08-10T04:20:49.275Z,16.80
2022-08-10T04:23:29.381Z,16.80
2022-08-10T04:26:06.423Z,16.80
2022-08-10T04:28:45.774Z,16.90
2022-08-10T04:31:24.010Z,17.10
2022-08-10T04:34:08.906Z,17.30
2022-08-10T04:36:49.956Z,17.20
2022-08-10T04:39:28.083Z,17.20
2022-08-10T04:42:05.970Z,17.10
2022-08-10T04:44:47.169Z,17.10
2022-08-10T04:47:57.315Z,17.10
2022-08-10T04:50:21.145Z,17.10
2022-08-10T04:53:01.075Z,17.10
2022-08-10T04:55:39.173Z,17.10
2022-08-10T04:58:17.466Z,17.10
2022-08-10T05:00:56.032Z,17.10
2022-08-10T05:03:32.642Z,17.00
2022-08-10T05:06:09.734Z,17.00
2022-08-10T05:08:46.577Z,16.90
2022-08-10T05:11:23.840Z,16.90
2022-08-10T05:14:01.663Z,16.90
2022-08-10T05:16:39.922Z,16.80
2022-08-10T05:19:16.473Z,16.90
2022-08-10T05:22:04.491Z,16.80
2022-08-10T05:24:42.220Z,16.70
2022-08-10T05:27:18.927Z,16.60
2022-08-10T05:30:01.281Z,16.60
2022-08-10T05:32:56.658Z,16.60
2022-08-10T05:35:52.943Z,16.60
2022-08-10T05:38:35.286Z,16.60
2022-08-10T05:41:12.299Z,16.50
2022-08-10T05:43:49.280Z,16.40
2022-08-10T05:46:26.759Z,16.40
2022-08-10T05:49:05.748Z,16.40
2022-08-10T05:51:42.916Z,16.40
2022-08-10T05:54:23.634Z,16.30
2022-08-10T05:57:00.854Z,16.50
2022-08-10T06:00:30.734Z,16.30
2022-08-10T06:02:39.397Z,16.30
2022-08-10T06:05:19.688Z,16.30
2022-08-10T06:07:59.498Z,16.40
2022-08-10T06:10:37.370Z,16.40
2022-08-10T06:14:13.296Z,16.30
2022-08-10T06:16:48.597Z,16.30
2022-08-10T06:19:25.053Z,16.20
2022-08-10T06:22:04.585Z,16.10
2022-08-10T06:25:04.631Z,16.10
2022-08-10T06:27:39.274Z,16.00
2022-08-10T06:30:20.174Z,15.90
2022-08-10T06:33:00.609Z,15.90
2022-08-10T06:35:38.438Z,15.90
2022-08-10T06:38:18.826Z,15.90
2022-08-10T06:41:00.978Z,15.90
2022-08-10T06:43:38.975Z,15.90
2022-08-10T06:46:21.431Z,15.90
2022-08-10T06:49:00.551Z,15.90
2022-08-10T06:51:43.447Z,15.90
2022-08-10T06:54:28.172Z,15.90
2022-08-10T06:57:17.902Z,15.90
2022-08-10T06:59:59.856Z,15.70
2022-08-10T07:02:46.779Z,15.70
2022-08-10T07:05:25.670Z,15.60
2022-08-10T07:08:06.380Z,15.60
2022-08-10T07:10:46.491Z,15.60
2022-08-10T07:14:15.798Z,15.50
2022-08-10T07:16:24.430Z,15.50
2022-08-10T07:19:02.326Z,15.40
2022-08-10T07:21:41.015Z,15.40
2022-08-10T07:24:20.245Z,15.40
2022-08-10T07:27:04.661Z,15.40
2022-08-10T07:29:53.233Z,15.30
2022-08-10T07:32:33.047Z,15.30
2022-08-10T07:35:10.397Z,15.40
2022-08-10T07:37:48.686Z,15.40
2022-08-10T07:40:26.859Z,15.40
2022-08-10T07:43:07.926Z,15.40
2022-08-10T07:45:45.376Z,15.40
2022-08-10T07:48:26.075Z,15.40
2022-08-10T07:51:05.922Z,15.40
2022-08-10T07:53:48.234Z,15.40
2022-08-10T07:56:48.545Z,15.40
2022-08-10T07:59:37.511Z,15.30
2022-08-10T08:02:17.907Z,15.20
2022-08-10T08:04:54.883Z,15.30
2022-08-10T08:07:32.457Z,15.20
2022-08-10T08:10:09.741Z,15.20
2022-08-10T08:12:47.931Z,15.20
2022-08-10T08:16:18.487Z,15.20
2022-08-10T08:18:28.191Z,15.10
2022-08-10T08:21:16.083Z,15.10
2022-08-10T08:24:31.548Z,15.10
2022-08-10T08:27:03.441Z,15.00
2022-08-10T08:29:42.291Z,15.10
2022-08-10T08:32:24.432Z,15.00
2022-08-10T08:35:02.370Z,15.00
2022-08-10T08:38:31.279Z,15.00
2022-08-10T08:40:40.196Z,15.00
2022-08-10T08:43:39.556Z,15.00
2022-08-10T08:46:34.885Z,15.10
2022-08-10T08:50:08.360Z,15.10
2022-08-10T08:52:49.692Z,15.10
2022-08-10T08:56:03.031Z,15.10
2022-08-10T08:59:04.061Z,15.00
2022-08-10T09:02:00.147Z,15.00
2022-08-10T09:05:01.809Z,14.90
2022-08-10T09:08:15.332Z,14.90
2022-08-10T09:11:02.227Z,14.90
2022-08-10T09:13:47.401Z,14.80
2022-08-10T09:16:32.120Z,14.80
2022-08-10T09:19:19.754Z,14.80
2022-08-10T09:22:22.621Z,14.80
2022-08-10T09:25:05.166Z,14.80
2022-08-10T09:27:49.257Z,14.80
2022-08-10T09:30:38.155Z,14.70
2022-08-10T09:36:26.172Z,14.80
2022-08-10T09:36:32.989Z,14.70
2022-08-10T09:40:46.245Z,14.70
2022-08-10T09:42:31.642Z,14.70
2022-08-10T09:45:17.607Z,14.80
2022-08-10T09:48:08.056Z,14.80
2022-08-10T09:54:01.888Z,14.70
2022-08-10T09:56:52.571Z,14.70
2022-08-10T10:00:00.292Z,14.80
2022-08-10T10:02:41.193Z,14.80
2022-08-10T10:05:51.057Z,14.90
2022-08-10T10:08:42.650Z,14.90
2022-08-10T10:11:30.318Z,14.90
2022-08-10T10:14:21.806Z,14.80
2022-08-10T10:17:13.056Z,14.80
2022-08-10T10:20:07.655Z,14.80
2022-08-10T10:23:04.529Z,14.80
2022-08-10T10:25:50.653Z,14.80
2022-08-10T10:29:19.619Z,14.80
2022-08-10T10:31:48.993Z,14.70
2022-08-10T10:34:32.679Z,14.70
2022-08-10T10:37:10.578Z,14.70
2022-08-10T10:39:50.090Z,14.70
2022-08-10T10:42:45.089Z,14.60
2022-08-10T10:45:27.405Z,14.60
2022-08-10T10:48:23.847Z,14.60
2022-08-10T10:51:13.400Z,14.60
2022-08-10T10:53:57.593Z,14.50
2022-08-10T10:56:45.381Z,14.50
2022-08-10T10:59:56.518Z,14.50
2022-08-10T11:02:43.462Z,14.50
2022-08-10T11:05:29.006Z,14.50
2022-08-10T11:08:08.793Z,14.50
2022-08-10T11:10:56.361Z,14.40
2022-08-10T11:14:25.775Z,14.40
2022-08-10T11:16:55.816Z,14.40
2022-08-10T11:20:03.031Z,14.30
2022-08-10T11:22:47.039Z,14.30
2022-08-10T11:25:33.273Z,14.20
2022-08-10T11:28:22.673Z,14.20
2022-08-10T11:31:06.475Z,14.20
2022-08-10T11:36:52.494Z,14.20
2022-08-10T11:39:54.471Z,14.20
2022-08-10T11:42:38.854Z,14.20
2022-08-10T11:45:21.397Z,14.10
2022-08-10T11:48:03.440Z,14.10
2022-08-10T11:50:44.531Z,14.10
2022-08-10T11:53:26.247Z,14.10
2022-08-10T11:56:16.208Z,14.00
2022-08-10T11:59:16.959Z,14.00
2022-08-10T12:01:55.254Z,13.90
2022-08-10T12:04:34.192Z,14.00
2022-08-10T12:10:01.774Z,13.90
2022-08-10T12:10:13.845Z,14.00
2022-08-10T12:12:59.207Z,14.00
2022-08-10T12:15:42.678Z,13.90
2022-08-10T12:18:25.683Z,13.80
2022-08-10T12:21:06.441Z,13.80
2022-08-10T12:24:02.459Z,13.80
2022-08-10T12:26:48.529Z,13.80
2022-08-10T12:29:37.032Z,13.80
2022-08-10T12:32:25.420Z,13.80
2022-08-10T12:35:12.369Z,13.80
2022-08-10T12:38:10.206Z,13.80
2022-08-10T12:40:50.426Z,13.70
2022-08-10T12:44:07.257Z,13.70
2022-08-10T12:46:44.403Z,13.70
2022-08-10T12:49:31.110Z,13.60
2022-08-10T12:52:16.830Z,13.70
2022-08-10T12:54:57.839Z,13.60
2022-08-10T12:57:39.982Z,13.60
2022-08-10T13:00:17.815Z,13.60
2022-08-10T13:02:59.700Z,13.60
2022-08-10T13:06:02.573Z,13.60
2022-08-10T13:08:54.817Z,13.60
2022-08-10T13:12:35.814Z,13.60
2022-08-10T13:14:37.571Z,13.60
2022-08-10T13:17:21.080Z,13.50
2022-08-10T13:20:12.964Z,13.50
2022-08-10T13:22:54.901Z,13.50
2022-08-10T13:25:39.831Z,13.50
2022-08-10T13:28:37.235Z,13.60
2022-08-10T13:31:20.299Z,13.50
2022-08-10T13:34:40.508Z,13.60
2022-08-10T13:37:01.557Z,13.60
2022-08-10T13:39:59.406Z,13.60
2022-08-10T13:42:42.692Z,13.60
2022-08-10T13:45:23.238Z,13.60
2022-08-10T13:48:13.066Z,13.60
2022-08-10T13:50:53.534Z,13.60
2022-08-10T13:53:36.222Z,13.60
2022-08-10T13:56:14.885Z,13.60
2022-08-10T13:58:55.377Z,13.60
2022-08-10T14:01:35.394Z,13.60
2022-08-10T14:04:16.661Z,13.60
2022-08-10T14:06:58.395Z,13.50
2022-08-10T14:09:40.229Z,13.50
2022-08-10T14:12:18.890Z,13.40
2022-08-10T14:15:09.509Z,13.40
2022-08-10T14:17:48.945Z,13.40
2022-08-10T14:20:28.077Z,13.40
2022-08-10T14:23:08.976Z,13.40
2022-08-10T14:25:56.838Z,13.40
2022-08-10T14:28:44.436Z,13.40
2022-08-10T14:31:24.459Z,13.40
2022-08-10T14:34:05.378Z,13.40
2022-08-10T14:36:48.532Z,13.40
2022-08-10T14:39:33.761Z,13.40
2022-08-10T14:42:26.997Z,13.30
2022-08-10T14:45:09.420Z,13.30
2022-08-10T14:47:59.430Z,13.30
2022-08-10T14:50:38.888Z,13.30
2022-08-10T14:53:36.850Z,13.20
2022-08-10T14:56:13.916Z,13.20
2022-08-10T14:59:06.779Z,13.10
2022-08-10T15:02:00.835Z,13.20
2022-08-10T15:04:44.860Z,13.10
2022-08-10T15:07:26.888Z,13.10
2022-08-10T15:10:04.852Z,13.10
2022-08-10T15:12:44.781Z,13.10
2022-08-10T15:15:29.058Z,13.10
2022-08-10T15:18:10.248Z,13.00
2022-08-10T15:20:51.718Z,13.00
2022-08-10T15:23:32.969Z,13.00
2022-08-10T15:26:14.884Z,13.00
2022-08-10T15:29:04.099Z,13.00
2022-08-10T15:32:12.822Z,13.00
2022-08-10T15:35:20.240Z,12.90
2022-08-10T15:38:09.491Z,12.90
2022-08-10T15:40:53.627Z,12.90
2022-08-10T15:43:36.801Z,12.90
2022-08-10T15:46:19.051Z,12.80
2022-08-10T15:49:04.209Z,12.80
2022-08-10T15:51:54.025Z,12.80
2022-08-10T15:54:35.225Z,12.80
2022-08-10T15:57:18.015Z,12.80
2022-08-10T15:59:58.502Z,12.80
2022-08-10T16:02:48.778Z,12.80
2022-08-10T16:06:00.392Z,12.80
2022-08-10T16:08:34.566Z,12.80
2022-08-10T16:11:17.804Z,12.80
2022-08-10T16:14:01.106Z,12.80
2022-08-10T16:16:41.520Z,12.80
2022-08-10T16:19:24.137Z,12.80
2022-08-10T16:22:36.367Z,12.90
2022-08-10T16:25:17.430Z,12.80
2022-08-10T16:27:53.906Z,12.90
2022-08-10T16:30:31.506Z,12.90
2022-08-10T16:33:08.720Z,12.90
2022-08-10T16:35:50.405Z,12.90
2022-08-10T16:38:30.038Z,12.90
2022-08-10T16:41:07.144Z,12.80
2022-08-10T16:44:04.399Z,12.80
2022-08-10T16:46:44.962Z,12.80
2022-08-10T16:49:24.402Z,12.80
2022-08-10T16:52:02.118Z,12.90
2022-08-10T16:54:44.027Z,12.90
2022-08-10T16:57:27.126Z,12.80
2022-08-10T17:00:04.407Z,12.90
2022-08-10T17:02:44.735Z,12.90
2022-08-10T17:06:03.550Z,12.90
2022-08-10T17:08:23.893Z,12.90
2022-08-10T17:11:05.259Z,12.90
2022-08-10T17:13:42.707Z,12.90
2022-08-10T17:16:21.264Z,12.90
2022-08-10T17:19:00.080Z,12.90
2022-08-10T17:21:51.428Z,12.90
2022-08-10T17:24:33.357Z,12.90
2022-08-10T17:28:21.159Z,12.90
2022-08-10T17:30:15.792Z,12.90
2022-08-10T17:33:02.425Z,12.80
2022-08-10T17:35:44.021Z,12.90
2022-08-10T17:38:23.655Z,12.90
2022-08-10T17:41:06.131Z,12.90
2022-08-10T17:44:02.481Z,12.90
2022-08-10T17:46:42.364Z,12.90
2022-08-10T17:49:21.071Z,12.90
2022-08-10T17:52:00.243Z,12.90
2022-08-10T17:54:40.597Z,12.90
2022-08-10T17:57:22.798Z,12.80
2022-08-10T18:00:05.390Z,12.80
2022-08-10T18:02:45.034Z,12.80
2022-08-10T18:05:25.076Z,12.80
2022-08-10T18:08:02.658Z,12.80
2022-08-10T18:10:39.812Z,12.80
2022-08-10T18:13:21.291Z,12.80
2022-08-10T18:16:01.427Z,12.80
2022-08-10T18:18:40.315Z,12.80
2022-08-10T18:21:26.583Z,12.80
2022-08-10T18:24:12.865Z,12.80
2022-08-10T18:26:55.693Z,12.70
2022-08-10T18:29:35.066Z,12.80
2022-08-10T18:32:14.874Z,12.70
2022-08-10T18:34:55.642Z,12.70
2022-08-10T18:37:32.855Z,12.60
2022-08-10T18:40:11.491Z,12.70
2022-08-10T18:42:53.682Z,12.60
2022-08-10T18:45:33.340Z,12.70
2022-08-10T18:48:17.877Z,12.70
2022-08-10T18:50:57.159Z,12.70
2022-08-10T18:53:38.998Z,12.70
2022-08-10T18:56:31.396Z,12.60
2022-08-10T18:59:22.644Z,12.80
2022-08-10T19:02:18.213Z,12.70
2022-08-10T19:05:30.437Z,12.70
2022-08-10T19:08:36.630Z,12.70
2022-08-10T19:11:49.949Z,12.70
2022-08-10T19:14:33.094Z,12.70
2022-08-10T19:17:21.092Z,12.70
2022-08-10T19:20:26.534Z,12.70
2022-08-10T19:23:20.390Z,12.70
2022-08-10T19:26:41.264Z,12.60
2022-08-10T19:29:04.518Z,12.60
2022-08-10T19:31:50.477Z,12.70
2022-08-10T19:34:55.273Z,12.70
2022-08-10T19:37:39.675Z,12.60
2022-08-10T19:40:44.279Z,12.60
2022-08-10T19:43:59.273Z,12.60
2022-08-10T19:46:36.609Z,12.60
2022-08-10T19:49:22.251Z,12.60
2022-08-10T19:52:11.066Z,12.60
2022-08-10T19:55:01.492Z,12.60
2022-08-10T19:57:43.979Z,12.70
2022-08-10T20:00:26.974Z,12.70
2022-08-10T20:03:22.129Z,12.70
2022-08-10T20:06:18.472Z,12.70
2022-08-10T20:09:05.622Z,12.70
2022-08-10T20:12:01.086Z,12.70
2022-08-10T20:14:45.010Z,12.70
2022-08-10T20:17:30.243Z,12.70
2022-08-10T20:20:31.983Z,12.70
2022-08-10T20:23:20.417Z,12.60
2022-08-10T20:26:00.862Z,12.70
2022-08-10T20:28:48.364Z,12.70
2022-08-10T20:31:31.436Z,12.60
2022-08-10T20:34:14.805Z,12.70
2022-08-10T20:37:02.433Z,12.70
2022-08-10T20:39:51.034Z,12.70
2022-08-10T20:42:32.062Z,12.70
2022-08-10T20:45:17.119Z,12.70
2022-08-10T20:48:03.737Z,12.70
2022-08-10T20:50:48.419Z,12.70
2022-08-10T20:53:29.668Z,12.80
2022-08-10T20:56:14.379Z,12.80
2022-08-10T20:59:09.373Z,12.80
2022-08-10T21:02:10.945Z,12.80
2022-08-10T21:04:57.042Z,12.80
2022-08-10T21:08:03.139Z,12.80
2022-08-10T21:10:56.613Z,12.80
2022-08-10T21:14:03.984Z,12.80
2022-08-10T21:17:00.309Z,12.80
2022-08-10T21:20:07.584Z,12.80
2022-08-10T21:22:48.377Z,12.80
2022-08-10T21:25:29.716Z,12.80
2022-08-10T21:28:29.131Z,12.80
2022-08-10T21:31:29.671Z,12.80
2022-08-10T21:34:32.098Z,12.90
2022-08-10T21:37:14.885Z,13.00
2022-08-10T21:40:07.793Z,13.30
2022-08-10T21:43:44.640Z,13.50
2022-08-10T21:47:08.048Z,13.70
2022-08-10T21:50:17.812Z,13.80
2022-08-10T21:53:45.016Z,13.90
2022-08-10T21:56:42.452Z,13.90
2022-08-10T21:59:44.090Z,13.90
2022-08-10T22:02:50.393Z,13.90
2022-08-10T22:05:52.890Z,13.80
2022-08-10T22:08:51.293Z,13.80
2022-08-10T22:11:48.584Z,13.80
2022-08-10T22:14:47.779Z,13.90
2022-08-10T22:18:01.150Z,13.80
2022-08-10T22:20:57.276Z,13.90
2022-08-10T22:24:16.485Z,13.90
2022-08-10T22:27:47.069Z,14.00
2022-08-10T22:30:39.092Z,14.00
2022-08-10T22:33:46.443Z,14.00
2022-08-10T22:36:59.203Z,14.10
2022-08-10T22:40:11.701Z,14.10
2022-08-10T22:43:10.746Z,14.10
2022-08-10T22:46:10.740Z,14.10
2022-08-10T22:49:01.628Z,14.20
2022-08-10T22:51:46.398Z,14.20
2022-08-10T22:54:45.238Z,14.30
2022-08-10T22:57:38.591Z,14.30
2022-08-10T23:00:30.702Z,14.30
2022-08-10T23:03:16.681Z,14.30
2022-08-10T23:06:02.472Z,14.30
2022-08-10T23:08:47.189Z,14.30
2022-08-10T23:11:27.918Z,14.30
2022-08-10T23:14:08.774Z,14.40
2022-08-10T23:17:07.377Z,14.30
2022-08-10T23:19:50.827Z,14.30
2022-08-10T23:22:39.241Z,14.30
2022-08-10T23:25:21.730Z,14.40
2022-08-10T23:28:12.454Z,14.40
2022-08-10T23:30:51.564Z,14.40
2022-08-10T23:33:38.283Z,14.40
2022-08-10T23:36:33.904Z,14.50
2022-08-10T23:39:25.275Z,14.60
2022-08-10T23:42:10.192Z,14.60
2022-08-10T23:44:51.554Z,14.60
2022-08-10T23:47:30.009Z,14.60
2022-08-10T23:50:07.882Z,14.70
2022-08-10T23:52:46.402Z,14.70
2022-08-10T23:55:29.747Z,14.80
2022-08-10T23:58:33.084Z,14.80
